Wednesday, November 26, 2014, 7:00 PM EST

KTHV, York Airport

Location: Spring Grove, PA, United States Lat: 39.917
Local Time: 7:00 PM EST ( 0:00 GMT) Lon: -76.883
Time Zone: US/Eastern Elev: 478 ft

Show me the last for .
Show Decoded

2014-11-26 18:34 METAR KTHV 262334Z AUTO 32005KT 5SM -SN BR BKN008 BKN013 OVC029 01/00 A2994 RMK
                 AO2 P0001 T00110000 =
2014-11-26 18:08 METAR KTHV 262308Z AUTO 31006KT 3SM -SN BR BKN010 OVC013 01/00 A2995 RMK AO2
                 P0000 T00060000 =
2014-11-26 18:01 METAR KTHV 262301Z AUTO 30006KT 2SM -SN BR OVC010 01/00 A2995 RMK AO2 P0000
                 T00060000 =
2014-11-26 17:53 METAR KTHV 262253Z AUTO 30007KT 2 1/2SM -SN BR OVC011 01/00 A2995 RMK AO2 SLP150
                 P0002 T00110000 =
2014-11-26 16:53 METAR KTHV 262153Z AUTO 29007KT 4SM -SN BR OVC008 01/00 A2995 RMK AO2 CIG
                 005V012 SLP147 P0002 T00060000 =
2014-11-26 16:46 METAR KTHV 262146Z AUTO 29007KT 3SM -SN BR OVC007 01/00 A2994 RMK AO2 P0002
                 T00060000 =
2014-11-26 16:34 METAR KTHV 262134Z AUTO 30006KT 2SM -SN BR OVC006 01/00 A2994 RMK AO2 P0002
                 T00060000 =
2014-11-26 16:14 METAR KTHV 262114Z AUTO 28006KT 1 3/4SM -SN BR OVC006 01/00 A2994 RMK AO2 P0001
                 T00060000 =
2014-11-26 15:53 METAR KTHV 262053Z AUTO 30005KT 1 1/4SM -SN BR OVC004 01/00 A2992 RMK AO2 SLP139
                 P0002 60012 T00060000 58002 =
2014-11-26 15:50 METAR KTHV 262050Z AUTO 32006KT 1 1/4SM -SN BR OVC004 01/00 A2992 RMK AO2 P0002
                 =
2014-11-26 15:37 METAR KTHV 262037Z AUTO 30006KT 1SM -SN BR BKN004 OVC011 01/00 A2993 RMK AO2
                 P0002 T00060000 =
2014-11-26 15:24 METAR KTHV 262024Z AUTO 29005KT 3/4SM -SN BR BKN004 OVC009 01/00 A2993 RMK AO2
                 P0001 T00060000 =
2014-11-26 15:04 METAR KTHV 262004Z AUTO 30005KT 3/4SM -SN BR BKN007 OVC011 01/00 A2994 RMK AO2
                 P0001 T00060000 =
2014-11-26 14:53 METAR KTHV 261953Z AUTO 28005KT 1SM -SN BR BKN007 OVC011 01/00 A2994 RMK AO2
                 SLP146 P0005 T00060000 TSNO =
2014-11-26 14:31 METAR KTHV 261931Z AUTO 32004KT 1 3/4SM -SN BR OVC005 01/00 A2991 RMK AO2 PRESFR
                 P0004 T00060000 =
2014-11-26 14:22 METAR KTHV 261922Z AUTO 31006KT 2 1/2SM -SN BR OVC005 01/00 A2993 RMK AO2 CIG
                 004V009 P0003 T00060000 =
2014-11-26 14:13 METAR KTHV 261913Z AUTO 31004KT 2SM -SN BR BKN006 BKN010 OVC017 01/00 A2995 RMK
                 AO2 PRESRR P0002 T00110000 =
2014-11-26 14:04 METAR KTHV 261904Z AUTO 35005KT 3SM -SN BR BKN006 BKN009 OVC018 01/00 A2993 RMK
                 AO2 P0001 T00110000 =
2014-11-26 13:58 METAR KTHV 261858Z AUTO 01006KT 2 1/2SM -SN BR SCT006 BKN009 OVC018 01/00 A2992
                 RMK AO2 P0001 T00110000 =
2014-11-26 13:53 METAR KTHV 261853Z AUTO 35006KT 2SM -SN BR SCT006 OVC018 01/00 A2993 RMK AO2
                 SLP141 P0005 T00110000 =
2014-11-26 13:48 METAR KTHV 261848Z AUTO 36005KT 1 3/4SM -SN BR SCT006 OVC017 01/00 A2992 RMK AO2
                 P0005 =
2014-11-26 13:41 METAR KTHV 261841Z AUTO 01006KT 1 3/4SM -SN BR SCT004 BKN008 OVC017 01/00 A2992
                 RMK AO2 P0004 T00110000 =
2014-11-26 13:28 METAR KTHV 261828Z AUTO 34006KT 1 1/2SM -SN BR BKN005 OVC012 01/00 A2994 RMK AO2
                 PRESFR P0003 T00060000 =
2014-11-26 13:13 METAR KTHV 261813Z AUTO 35006KT 1 1/2SM -SN BR OVC003 01/00 A2996 RMK AO2 P0002
                 T00110000 =
2014-11-26 13:03 METAR KTHV 261803Z AUTO 36005KT 1SM -SN BR OVC003 01/00 A2997 RMK AO2 P0001
                 T00110000 =
2014-11-26 12:53 METAR KTHV 261753Z AUTO 01005KT 3/4SM -SN BR OVC003 01/00 A2998 RMK AO2 SLP158
                 P0005 60028 T00060000 10039 20006 58037 =
2014-11-26 11:53 METAR KTHV 261653Z AUTO 03005KT 1/2SM SN FG BKN003 OVC008 01/00 A3001 RMK AO2
                 PRESFR SLP169 P0003 T00060000 =
2014-11-26 11:34 METAR KTHV 261634Z AUTO 36003KT 1/2SM SN FG BKN003 OVC007 01/00 A3005 RMK AO2
                 LTG DSNT SE P0002 T00060000 =
2014-11-26 11:24 METAR KTHV 261624Z AUTO 01003KT 1/2SM SN FG SCT003 OVC007 01/00 A3004 RMK AO2
                 P0001 T00060000 =
2014-11-26 11:09 METAR KTHV 261609Z AUTO VRB03KT 1/2SM SN FG VV005 01/00 A3007 RMK AO2 P0001
                 T00060000 =
2014-11-26 10:59 METAR KTHV 261559Z AUTO 36003KT 1/2SM SN FG VV006 01/00 A3008 RMK AO2 P0000
                 T00060000 =
2014-11-26 10:53 METAR KTHV 261553Z AUTO 01004KT 1/4SM +SN FG VV004 01/00 A3007 RMK AO2 SLP190
                 P0001 T00060000 =
2014-11-26 09:53 METAR KTHV 261453Z AUTO 05003KT 3/4SM -SN BR OVC003 01/00 A3009 RMK AO2
                 RAE03SNB03 SLP197 P0003 60019 T00060000 56001 =
2014-11-26 09:35 METAR KTHV 261435Z AUTO 06007KT 3/4SM -SN BR OVC004 01/00 A3006 RMK AO2
                 RAE03SNB03 CIG 003V007 P0002 T00060000 =
2014-11-26 09:26 METAR KTHV 261426Z AUTO 06006KT 1SM -SN BR BKN006 OVC010 01/00 A3007 RMK AO2
                 RAE03SNB03 CIG 004V009 P0002 T00110000 =
2014-11-26 09:19 METAR KTHV 261419Z AUTO 06008KT 1 1/2SM -SN BR OVC008 01/01 A3007 RMK AO2
                 RAE03SNB03 CIG 005V012 PRESFR P0002 T00110006 =
2014-11-26 09:11 METAR KTHV 261411Z AUTO 07007KT 2SM -SN BR BKN010 OVC015 02/01 A3010 RMK AO2
                 RAE03SNB03 CIG 006V013 P0001 T00170006 =
2014-11-26 09:02 METAR KTHV 261402Z AUTO 06006KT 4SM RA BR BKN010 OVC015 02/01 A3011 RMK AO2
                 P0001 T00220011 =
2014-11-26 08:53 METAR KTHV 261353Z AUTO 05007KT 5SM RA BR BKN008 OVC015 03/02 A3009 RMK AO2
                 SLP197 P0008 T00280017 =
2014-11-26 08:42 METAR KTHV 261342Z AUTO 06007KT 4SM RA BR BKN008 BKN016 OVC024 03/02 A3009 RMK
                 AO2 P0007 T00330022 =
2014-11-26 08:35 METAR KTHV 261335Z AUTO 05007KT 3SM RA BR BKN007 OVC024 03/02 A3007 RMK AO2
                 P0006 T00330022 =
2014-11-26 08:23 METAR KTHV 261323Z AUTO 03005KT 4SM RA BR FEW007 OVC024 04/03 A3009 RMK AO2
                 P0004 T00390028 =
2014-11-26 07:53 METAR KTHV 261253Z AUTO 07005KT 4SM RA BR OVC028 04/02 A3009 RMK AO2 SLP195
                 P0008 T00390022 =
2014-11-26 06:53 METAR KTHV 261153Z AUTO 07006KT 3SM RA BR OVC022 04/02 A3009 RMK AO2 SLP197
                 P0005 60006 70006 T00390022 10050 20028 56015 =
2014-11-26 06:04 METAR KTHV 261104Z AUTO 01004KT 6SM -RA OVC028 05/01 A3010 RMK AO2 P0001
                 T00500011 =
2014-11-26 05:53 METAR KTHV 261053Z AUTO 32003KT 7SM -RA OVC030 04/01 A3010 RMK AO2 RAB17 SLP199
                 P0001 T00440011 =
2014-11-26 04:53 METAR KTHV 260953Z AUTO 29003KT 10SM OVC055 04/01 A3010 RMK AO2 SLP198 T00390011
                 =
2014-11-26 03:53 METAR KTHV 260853Z AUTO 00000KT 10SM BKN070 OVC090 03/01 A3014 RMK AO2 PRESFR
                 SLP210 T00330011 58008 =
2014-11-26 02:53 METAR KTHV 260753Z AUTO 00000KT 10SM OVC110 03/01 A3015 RMK AO2 SLP214 T00330006
                 =
2014-11-26 01:53 METAR KTHV 260653Z AUTO 00000KT 10SM BKN110 03/01 A3017 RMK AO2 SLP221 T00280006
                 =
2014-11-26 00:53 METAR KTHV 260553Z AUTO 00000KT 10SM CLR 03/01 A3016 RMK AO2 SLP218 T00280006
                 10033 21006 51011 =
2014-11-25 23:53 METAR KTHV 260453Z AUTO 00000KT 10SM CLR 03/00 A3016 RMK AO2 SLP218 T00280000
                 401721006 =
2014-11-25 22:53 METAR KTHV 260353Z AUTO 00000KT 10SM CLR 02/00 A3014 RMK AO2 SLP212 T00220000 =
2014-11-25 21:53 METAR KTHV 260253Z AUTO 00000KT 10SM CLR 01/M01 A3013 RMK AO2 SLP208 T00061011
                 51011 =
2014-11-25 20:53 METAR KTHV 260153Z AUTO 27003KT 10SM CLR 00/M02 A3013 RMK AO2 SLP207 T00001017 =
2014-11-25 19:53 METAR KTHV 260053Z AUTO 11004KT 10SM CLR 00/M02 A3011 RMK AO2 SLP202 T00001017 =

Support USWX by starting your Amazon purchase here.